Time;durP1;ratioP1;P1;durP2;ratioP2;P2;SDS_P1;SDS_P2;PMS_P1;PMS_P2;Temp;Humidity;BMP_temperature;BMP_pressure;BME280_temperature;BME280_humidity;BME280_pressure;Samples;Min_cycle;Max_cycle;Signal;HPM_P1;HPM_P2
2022/01/02 00:01:01;;;;;;;7.13;5.17;;;10.10;99.50;;;;;;938561;149;27268;-76
2022/01/02 00:03:28;;;;;;;6.10;5.50;;;10.10;99.80;;;;;;939228;149;27435;-76
2022/01/02 00:05:54;;;;;;;5.93;5.37;;;10.10;99.90;;;;;;932898;149;27263;-76
2022/01/02 00:08:21;;;;;;;6.87;4.87;;;10.10;99.90;;;;;;954263;147;27313;-76
2022/01/02 00:10:54;;;;;;;8.87;5.83;;;10.10;99.90;;;;;;942353;149;27387;-77
2022/01/02 00:13:29;;;;;;;6.57;5.97;;;10.10;99.90;;;;;;932746;149;27298;-77
2022/01/02 00:15:53;;;;;;;7.97;5.40;;;10.10;99.90;;;;;;934384;149;27404;-76
2022/01/02 00:18:19;;;;;;;8.53;6.20;;;10.10;99.90;;;;;;945104;151;27403;-77
2022/01/02 00:20:49;;;;;;;6.73;6.07;;;10.10;99.90;;;;;;942718;149;27316;-77
2022/01/02 00:23:18;;;;;;;8.73;6.30;;;10.10;99.90;;;;;;945140;149;27396;-77
2022/01/02 00:25:41;;;;;;;6.70;6.10;;;10.20;99.90;;;;;;939704;149;27808;-77
2022/01/02 00:28:06;;;;;;;11.20;6.07;;;10.10;99.90;;;;;;938209;149;27437;-77
2022/01/02 00:30:32;;;;;;;6.47;5.63;;;10.10;99.90;;;;;;935715;149;27351;-76
2022/01/02 00:32:59;;;;;;;6.73;5.67;;;10.10;99.90;;;;;;939602;150;27270;-76
2022/01/02 00:35:25;;;;;;;7.60;5.97;;;10.10;99.90;;;;;;936831;149;27359;-75
2022/01/02 00:37:52;;;;;;;7.27;6.20;;;10.10;99.90;;;;;;954779;149;27337;-75
2022/01/02 00:40:19;;;;;;;7.47;6.00;;;10.10;99.90;;;;;;938730;151;27477;-76
2022/01/02 00:42:45;;;;;;;7.33;5.67;;;10.10;99.90;;;;;;934659;152;27403;-76
2022/01/02 00:45:21;;;;;;;6.80;5.77;;;10.10;99.90;;;;;;942867;150;27347;-75
2022/01/02 00:48:13;;;;;;;7.50;5.87;;;10.10;99.90;;;;;;924672;153;27430;-75
2022/01/02 00:50:38;;;;;;;7.37;5.90;;;10.10;99.90;;;;;;950703;150;27468;-77
2022/01/02 00:53:06;;;;;;;6.87;5.70;;;10.10;99.90;;;;;;925090;153;27331;-76
2022/01/02 00:55:32;;;;;;;7.57;5.63;;;10.10;99.90;;;;;;945526;150;27328;-76
2022/01/02 00:58:05;;;;;;;6.90;6.17;;;10.10;99.90;;;;;;946666;150;27332;-76
2022/01/02 01:00:30;;;;;;;8.23;6.00;;;10.10;99.90;;;;;;939797;150;27458;-76
2022/01/02 01:02:57;;;;;;;7.07;5.50;;;10.10;99.90;;;;;;940356;151;27305;-76
2022/01/02 01:05:24;;;;;;;8.93;5.27;;;10.10;99.90;;;;;;946667;150;27317;-76
2022/01/02 01:07:50;;;;;;;10.87;5.97;;;10.10;99.90;;;;;;947178;148;27296;-75
2022/01/02 01:10:17;;;;;;;6.33;5.40;;;10.10;99.90;;;;;;947081;150;27423;-75
2022/01/02 01:12:45;;;;;;;11.03;6.53;;;10.00;99.90;;;;;;947103;150;27280;-76
2022/01/02 01:15:10;;;;;;;7.07;5.83;;;10.00;99.90;;;;;;943034;150;27404;-76
2022/01/02 01:17:37;;;;;;;12.23;7.63;;;10.00;99.70;;;;;;943020;150;27406;-76
2022/01/02 01:20:03;;;;;;;13.23;9.13;;;10.00;99.50;;;;;;925508;150;27347;-76
2022/01/02 01:22:30;;;;;;;14.40;8.90;;;9.90;99.40;;;;;;932381;153;27386;-76
2022/01/02 01:24:57;;;;;;;9.07;6.90;;;9.90;99.40;;;;;;931292;151;27406;-76
2022/01/02 01:27:23;;;;;;;10.13;7.53;;;9.80;99.20;;;;;;936635;150;27375;-76
2022/01/02 01:29:49;;;;;;;9.63;7.40;;;9.80;99.20;;;;;;934230;150;27428;-76
2022/01/02 01:32:16;;;;;;;7.80;5.60;;;9.70;99.10;;;;;;933827;152;27353;-77
2022/01/02 01:34:43;;;;;;;6.43;5.67;;;9.70;99.10;;;;;;927257;152;27425;-77
2022/01/02 01:37:09;;;;;;;8.70;6.27;;;9.60;99.10;;;;;;932362;152;27350;-77
2022/01/02 01:39:36;;;;;;;8.27;6.17;;;9.60;99.10;;;;;;949131;149;27304;-77
2022/01/02 01:42:08;;;;;;;7.17;5.70;;;9.50;99.10;;;;;;951352;148;27473;-77
2022/01/02 01:45:03;;;;;;;7.30;5.93;;;9.50;99.10;;;;;;952901;148;27394;-77
2022/01/02 01:47:07;;;;;;;7.77;5.47;;;9.40;99.10;;;;;;938786;150;27269;-75
2022/01/02 01:49:34;;;;;;;10.63;7.83;;;9.30;99.10;;;;;;941742;149;27304;-77
2022/01/02 01:52:00;;;;;;;11.23;8.27;;;9.30;99.20;;;;;;939525;149;27869;-77
2022/01/02 01:54:27;;;;;;;9.87;7.60;;;9.20;98.90;;;;;;940228;149;27350;-76
2022/01/02 01:56:53;;;;;;;7.37;5.90;;;9.20;99.30;;;;;;949780;149;27420;-74
2022/01/02 01:59:20;;;;;;;7.43;5.70;;;9.20;99.50;;;;;;935860;147;27459;-74
2022/01/02 02:01:47;;;;;;;17.03;5.37;;;9.10;99.70;;;;;;941651;149;27338;-75
2022/01/02 02:04:13;;;;;;;5.87;4.20;;;9.10;99.70;;;;;;933743;149;27335;-75
2022/01/02 02:06:43;;;;;;;4.70;4.30;;;9.10;99.70;;;;;;920391;149;27365;-75
2022/01/02 02:09:09;;;;;;;4.70;4.30;;;9.00;99.60;;;;;;943209;149;27299;-75
2022/01/02 02:11:37;;;;;;;6.90;4.47;;;9.00;99.60;;;;;;936669;149;27434;-75
2022/01/02 02:14:04;;;;;;;4.90;4.43;;;9.00;99.70;;;;;;934103;149;27350;-75
2022/01/02 02:16:29;;;;;;;5.03;4.60;;;8.90;99.70;;;;;;936606;149;27483;-76
2022/01/02 02:18:56;;;;;;;5.23;4.17;;;8.90;99.70;;;;;;944209;149;27321;-75
2022/01/02 02:21:31;;;;;;;5.60;4.67;;;8.90;99.90;;;;;;950771;146;27434;-75
2022/01/02 02:23:57;;;;;;;5.23;4.50;;;8.80;99.60;;;;;;939057;147;27352;-75
2022/01/02 02:26:24;;;;;;;4.80;4.27;;;8.80;99.40;;;;;;946185;150;27426;-75
2022/01/02 02:28:54;;;;;;;5.17;4.67;;;8.80;99.40;;;;;;944321;150;27802;-76
2022/01/02 02:31:20;;;;;;;4.97;4.53;;;8.70;99.40;;;;;;947496;146;27344;-76
2022/01/02 02:33:47;;;;;;;4.77;4.37;;;8.70;99.40;;;;;;951166;146;27408;-75
2022/01/02 02:36:13;;;;;;;5.27;4.67;;;8.60;99.40;;;;;;953112;146;27645;-76
2022/01/02 02:38:40;;;;;;;5.07;4.50;;;8.60;99.40;;;;;;950764;145;27464;-75
2022/01/02 02:41:07;;;;;;;6.67;5.53;;;8.50;99.50;;;;;;960248;146;27298;-75
2022/01/02 02:43:44;;;;;;;6.90;5.57;;;8.50;99.50;;;;;;969673;145;27421;-75
2022/01/02 02:51:31;;;;;;;5.33;4.50;;;8.40;99.50;;;;;;970442;144;27368;-75
2022/01/02 02:53:52;;;;;;;5.60;5.03;;;8.40;99.60;;;;;;965558;147;27797;-74
2022/01/02 02:58:49;;;;;;;5.30;4.77;;;8.30;99.80;;;;;;971142;145;27346;-74
2022/01/02 03:01:16;;;;;;;6.37;5.00;;;8.30;99.90;;;;;;954127;148;28157;-74
2022/01/02 03:03:41;;;;;;;6.10;4.13;;;8.30;99.90;;;;;;961277;148;27413;-74
2022/01/02 03:06:07;;;;;;;4.80;4.30;;;8.30;99.90;;;;;;962096;148;27286;-75
2022/01/02 03:08:34;;;;;;;5.13;4.63;;;8.30;99.90;;;;;;946774;148;27329;-75
2022/01/02 03:11:01;;;;;;;7.00;4.77;;;8.30;99.90;;;;;;955267;147;27736;-73
2022/01/02 03:13:27;;;;;;;5.10;4.60;;;8.30;99.90;;;;;;946109;148;27500;-74
2022/01/02 03:15:56;;;;;;;6.03;4.83;;;8.30;99.90;;;;;;969728;145;27345;-75
2022/01/02 03:18:23;;;;;;;8.20;6.03;;;8.30;99.90;;;;;;970368;145;27299;-74
2022/01/02 03:20:50;;;;;;;8.37;5.93;;;8.30;99.90;;;;;;968138;145;27285;-74
2022/01/02 03:23:16;;;;;;;8.53;6.53;;;8.30;99.90;;;;;;967474;145;27314;-74
2022/01/02 03:25:43;;;;;;;11.70;7.00;;;8.30;99.90;;;;;;972077;145;27316;-74
2022/01/02 03:28:09;;;;;;;8.07;6.20;;;8.30;99.90;;;;;;964972;145;27312;-75
2022/01/02 03:30:36;;;;;;;7.07;5.83;;;8.30;99.90;;;;;;954694;145;27356;-74
2022/01/02 03:33:02;;;;;;;7.53;5.50;;;8.30;99.90;;;;;;940919;148;27321;-74
2022/01/02 03:35:29;;;;;;;6.13;5.43;;;8.30;99.90;;;;;;952299;147;27473;-74
2022/01/02 03:37:56;;;;;;;7.63;5.47;;;8.30;99.90;;;;;;951303;150;27384;-76
2022/01/02 03:40:22;;;;;;;5.30;4.73;;;8.30;99.90;;;;;;954746;148;27456;-76
2022/01/02 03:42:49;;;;;;;10.90;8.00;;;8.40;99.90;;;;;;963817;148;27435;-76
2022/01/02 03:45:15;;;;;;;16.00;8.90;;;8.40;99.90;;;;;;947633;148;27339;-75
2022/01/02 03:47:42;;;;;;;9.23;6.70;;;8.40;99.90;;;;;;949461;150;27287;-75
2022/01/02 03:50:09;;;;;;;6.17;5.57;;;8.40;99.90;;;;;;944482;150;27255;-75
2022/01/02 03:52:35;;;;;;;5.50;5.03;;;8.40;99.90;;;;;;941401;152;27696;-75
2022/01/02 03:55:02;;;;;;;5.83;5.03;;;8.40;99.90;;;;;;940017;150;27346;-75
2022/01/02 03:57:28;;;;;;;5.60;4.90;;;8.40;99.90;;;;;;947239;150;27425;-75
2022/01/02 03:59:55;;;;;;;7.00;5.33;;;8.40;99.90;;;;;;940762;150;27360;-75
2022/01/02 04:02:22;;;;;;;4.97;4.47;;;8.40;99.90;;;;;;933337;152;27331;-75
2022/01/02 04:04:48;;;;;;;5.97;5.17;;;8.40;99.90;;;;;;936309;151;27341;-74
2022/01/02 04:07:15;;;;;;;5.37;4.70;;;8.40;99.90;;;;;;940887;150;27827;-74
2022/01/02 04:09:41;;;;;;;5.20;4.70;;;8.40;99.90;;;;;;930028;153;27346;-74
2022/01/02 04:12:08;;;;;;;5.30;4.80;;;8.50;99.90;;;;;;949712;150;27369;-74
2022/01/02 04:14:34;;;;;;;4.90;4.40;;;8.50;99.90;;;;;;947115;147;27449;-75
2022/01/02 04:17:01;;;;;;;5.53;4.90;;;8.60;99.90;;;;;;950241;150;27433;-74
2022/01/02 04:19:28;;;;;;;4.80;4.40;;;8.60;99.90;;;;;;952693;147;27316;-74
2022/01/02 04:21:54;;;;;;;5.33;4.37;;;8.70;99.90;;;;;;957208;147;27416;-75
2022/01/02 04:24:21;;;;;;;7.07;4.83;;;8.70;99.90;;;;;;953533;150;27455;-75
2022/01/02 04:26:47;;;;;;;4.97;4.50;;;8.70;99.90;;;;;;946917;150;27385;-75
2022/01/02 04:29:14;;;;;;;4.67;4.23;;;8.80;99.90;;;;;;946712;150;27367;-75
2022/01/02 04:31:43;;;;;;;4.77;4.37;;;8.80;99.90;;;;;;951834;150;27437;-75
2022/01/02 04:34:10;;;;;;;4.80;4.40;;;8.80;99.90;;;;;;948457;150;27402;-75
2022/01/02 04:36:36;;;;;;;5.70;4.63;;;8.80;99.90;;;;;;944338;150;27801;-75
2022/01/02 04:39:03;;;;;;;4.60;3.87;;;8.80;99.80;;;;;;947187;150;27461;-75
2022/01/02 04:41:30;;;;;;;6.07;4.43;;;8.80;99.90;;;;;;943535;150;27330;-75
2022/01/02 04:43:56;;;;;;;5.87;4.80;;;8.80;99.90;;;;;;943041;148;27432;-75
2022/01/02 04:46:23;;;;;;;6.37;5.20;;;8.80;99.90;;;;;;948286;148;27346;-74
2022/01/02 04:48:49;;;;;;;6.27;4.97;;;8.80;99.80;;;;;;960257;148;27336;-74
2022/01/02 04:51:16;;;;;;;4.83;4.33;;;8.80;99.70;;;;;;954960;148;27428;-73
2022/01/02 04:53:47;;;;;;;5.03;4.53;;;8.80;99.60;;;;;;950325;148;27366;-73
2022/01/02 04:56:09;;;;;;;8.47;4.73;;;8.80;99.50;;;;;;949797;148;27337;-73
2022/01/02 04:58:36;;;;;;;5.10;4.40;;;8.70;99.50;;;;;;949911;148;27360;-73
2022/01/02 05:01:11;;;;;;;4.80;4.30;;;8.70;99.40;;;;;;950729;148;27291;-73
2022/01/02 05:03:32;;;;;;;4.60;4.20;;;8.70;99.40;;;;;;949467;148;27441;-73
2022/01/02 05:05:58;;;;;;;5.43;4.93;;;8.70;99.50;;;;;;950252;148;27329;-73
2022/01/02 05:08:25;;;;;;;5.93;4.27;;;8.70;99.60;;;;;;950998;148;27373;-72
2022/01/02 05:10:51;;;;;;;5.80;4.90;;;8.70;99.70;;;;;;956427;146;27286;-74
2022/01/02 05:13:20;;;;;;;5.57;4.90;;;8.70;99.60;;;;;;951527;148;27431;-73
2022/01/02 05:15:47;;;;;;;5.37;4.87;;;8.70;99.60;;;;;;958280;148;27331;-75
2022/01/02 05:18:13;;;;;;;5.83;5.10;;;8.60;99.60;;;;;;949383;148;27286;-74
2022/01/02 05:20:44;;;;;;;6.27;5.40;;;8.60;99.60;;;;;;956087;148;27341;-74
2022/01/02 05:23:07;;;;;;;6.73;5.47;;;8.60;99.60;;;;;;949164;148;27347;-76
2022/01/02 05:25:33;;;;;;;5.53;4.97;;;8.60;99.70;;;;;;950601;148;27439;-76
2022/01/02 05:28:00;;;;;;;5.20;4.70;;;8.60;99.80;;;;;;957243;148;27261;-74
2022/01/02 05:30:26;;;;;;;6.33;5.47;;;8.60;99.80;;;;;;955850;148;27274;-74
2022/01/02 05:32:53;;;;;;;4.93;4.53;;;8.60;99.90;;;;;;950924;148;27357;-74
2022/01/02 05:35:20;;;;;;;6.47;4.87;;;8.60;99.90;;;;;;950029;148;27322;-73
2022/01/02 05:37:46;;;;;;;7.33;5.60;;;8.70;99.90;;;;;;949889;150;27446;-74
2022/01/02 05:40:13;;;;;;;6.00;5.40;;;8.70;99.90;;;;;;953775;148;27266;-74
2022/01/02 05:42:39;;;;;;;7.37;6.07;;;8.70;99.90;;;;;;953784;148;27327;-74
2022/01/02 05:45:06;;;;;;;11.17;6.80;;;8.70;99.90;;;;;;949714;147;27302;-74
2022/01/02 05:47:33;;;;;;;17.63;7.30;;;8.70;99.90;;;;;;953681;150;27386;-76
2022/01/02 05:49:59;;;;;;;13.37;7.50;;;8.80;99.90;;;;;;927300;151;27323;-75
2022/01/02 05:52:26;;;;;;;11.43;7.60;;;8.80;99.90;;;;;;938535;151;27358;-74
2022/01/02 05:54:55;;;;;;;9.63;7.17;;;8.80;99.90;;;;;;935407;150;27276;-74
2022/01/02 05:57:21;;;;;;;9.17;7.10;;;8.90;99.90;;;;;;936398;151;27298;-75
2022/01/02 05:59:48;;;;;;;9.83;7.13;;;8.80;99.90;;;;;;935077;149;27284;-75
2022/01/02 06:02:15;;;;;;;10.10;7.00;;;8.90;99.90;;;;;;933226;153;27345;-74
2022/01/02 06:04:41;;;;;;;9.30;7.07;;;8.90;99.90;;;;;;938503;151;27851;-74
2022/01/02 06:07:09;;;;;;;9.83;7.23;;;8.90;99.90;;;;;;940646;148;27362;-73
2022/01/02 06:09:34;;;;;;;9.30;6.80;;;8.90;99.80;;;;;;936769;150;27335;-72
2022/01/02 06:12:01;;;;;;;9.90;6.80;;;8.90;99.80;;;;;;932634;151;27372;-74
2022/01/02 06:14:28;;;;;;;8.07;6.43;;;8.90;99.80;;;;;;940196;151;27422;-74
2022/01/02 06:16:54;;;;;;;9.83;6.17;;;8.90;99.90;;;;;;932293;152;27367;-74
2022/01/02 06:19:21;;;;;;;9.00;5.83;;;8.90;99.90;;;;;;931757;151;27336;-74
2022/01/02 06:21:50;;;;;;;7.97;6.23;;;8.90;99.90;;;;;;934555;151;27375;-74
2022/01/02 06:24:17;;;;;;;7.83;6.17;;;8.90;99.90;;;;;;938514;151;27443;-74
2022/01/02 06:26:43;;;;;;;8.93;6.23;;;8.90;99.90;;;;;;929722;151;27438;-74
2022/01/02 06:29:13;;;;;;;7.97;6.50;;;8.90;99.90;;;;;;933353;151;27339;-74
2022/01/02 06:31:39;;;;;;;9.00;6.10;;;8.90;99.90;;;;;;935057;150;27280;-75
2022/01/02 06:34:06;;;;;;;5.93;5.33;;;9.00;99.90;;;;;;932897;151;27295;-74
2022/01/02 06:36:32;;;;;;;7.53;5.90;;;9.00;99.90;;;;;;934699;151;27368;-75
2022/01/02 06:38:59;;;;;;;8.70;6.50;;;9.00;99.90;;;;;;933100;152;27357;-76
2022/01/02 06:41:25;;;;;;;9.30;6.67;;;9.10;99.90;;;;;;931501;151;27353;-76
2022/01/02 06:43:52;;;;;;;9.57;7.33;;;9.10;99.90;;;;;;946945;147;27377;-75
2022/01/02 06:46:19;;;;;;;8.70;7.00;;;9.10;99.90;;;;;;964766;147;27342;-74
2022/01/02 06:48:45;;;;;;;10.53;7.07;;;9.10;99.90;;;;;;963795;145;27990;-74
2022/01/02 06:51:12;;;;;;;10.10;7.40;;;9.10;99.90;;;;;;953111;145;27260;-75
2022/01/02 06:53:38;;;;;;;8.37;6.40;;;9.10;99.80;;;;;;968649;145;27465;-76
2022/01/02 06:56:05;;;;;;;9.73;6.77;;;9.10;99.80;;;;;;966509;145;27320;-75
2022/01/02 06:58:32;;;;;;;8.97;7.10;;;9.10;99.80;;;;;;958764;145;27351;-75
2022/01/02 07:00:58;;;;;;;8.87;7.10;;;9.00;99.80;;;;;;952737;148;27275;-74
2022/01/02 07:03:25;;;;;;;8.70;7.23;;;9.10;99.80;;;;;;966212;148;27970;-74
2022/01/02 07:05:51;;;;;;;8.33;7.10;;;9.10;99.80;;;;;;955798;148;27466;-74
2022/01/02 07:08:18;;;;;;;9.90;7.60;;;9.00;99.80;;;;;;965724;145;27300;-74
2022/01/02 07:10:45;;;;;;;9.03;7.13;;;9.10;99.80;;;;;;955365;147;27427;-74
2022/01/02 07:13:11;;;;;;;7.40;6.67;;;9.00;99.90;;;;;;947753;148;27402;-74
2022/01/02 07:15:38;;;;;;;7.63;6.57;;;9.00;99.70;;;;;;950414;147;27462;-73
2022/01/02 07:18:04;;;;;;;7.77;6.10;;;9.10;99.80;;;;;;947570;148;27468;-75
2022/01/02 07:20:31;;;;;;;7.67;6.87;;;9.00;99.70;;;;;;957885;147;27317;-75
2022/01/02 07:22:57;;;;;;;8.37;6.90;;;9.00;99.90;;;;;;953684;147;27308;-75
2022/01/02 07:25:24;;;;;;;7.70;6.70;;;9.00;99.80;;;;;;956001;150;27323;-74
2022/01/02 07:27:53;;;;;;;9.90;6.40;;;9.10;99.80;;;;;;955817;147;27347;-74
2022/01/02 07:30:20;;;;;;;8.07;6.50;;;9.00;99.80;;;;;;947037;150;27390;-74
2022/01/02 07:32:52;;;;;;;6.80;6.10;;;9.00;99.80;;;;;;975777;145;27380;-74
2022/01/02 07:35:19;;;;;;;8.00;6.43;;;9.10;99.90;;;;;;949072;147;27335;-73
2022/01/02 07:37:45;;;;;;;8.43;6.87;;;9.10;99.90;;;;;;949535;150;27463;-74
2022/01/02 07:40:12;;;;;;;8.13;6.43;;;9.10;99.90;;;;;;947447;147;27369;-73
2022/01/02 07:42:38;;;;;;;8.57;6.47;;;9.10;99.90;;;;;;959724;145;27315;-73
2022/01/02 07:45:05;;;;;;;7.47;5.97;;;9.10;99.90;;;;;;969160;144;27360;-74
2022/01/02 07:47:32;;;;;;;6.73;5.97;;;9.20;99.90;;;;;;962403;146;27293;-74
2022/01/02 07:49:58;;;;;;;7.77;6.43;;;9.20;99.90;;;;;;957197;146;27898;-73
2022/01/02 07:52:25;;;;;;;8.67;6.43;;;9.20;99.90;;;;;;939631;148;27360;-74
2022/01/02 07:54:51;;;;;;;12.33;7.57;;;9.20;99.90;;;;;;952970;148;27397;-74
2022/01/02 07:57:19;;;;;;;10.93;7.13;;;9.20;99.90;;;;;;959137;146;27282;-74
2022/01/02 07:59:45;;;;;;;8.53;6.00;;;9.20;99.90;;;;;;959748;148;27344;-74
2022/01/02 08:02:14;;;;;;;7.80;6.57;;;9.30;99.90;;;;;;938085;149;27869;-74
2022/01/02 08:04:41;;;;;;;7.27;5.90;;;9.30;99.90;;;;;;956860;146;27458;-73
2022/01/02 08:07:07;;;;;;;6.33;5.73;;;9.30;99.90;;;;;;957391;148;27307;-73
2022/01/02 08:09:34;;;;;;;6.63;5.73;;;9.30;99.90;;;;;;957059;146;27330;-73
2022/01/02 08:12:00;;;;;;;6.63;5.63;;;9.40;99.90;;;;;;962079;146;27428;-73
2022/01/02 08:14:27;;;;;;;6.03;5.43;;;9.40;99.90;;;;;;954837;148;27327;-74
2022/01/02 08:16:54;;;;;;;6.90;5.77;;;9.50;99.90;;;;;;944592;151;27432;-73
2022/01/02 08:19:20;;;;;;;7.57;5.93;;;9.50;99.90;;;;;;938527;149;27443;-73
2022/01/02 08:21:47;;;;;;;6.00;5.47;;;9.50;99.90;;;;;;934095;152;27443;-73
2022/01/02 08:24:13;;;;;;;6.00;4.97;;;9.60;99.90;;;;;;943150;148;27489;-74
2022/01/02 08:26:40;;;;;;;6.47;5.40;;;9.60;99.90;;;;;;947954;148;27386;-73
2022/01/02 08:29:06;;;;;;;4.80;4.40;;;9.70;99.90;;;;;;957338;148;27379;-73
2022/01/02 08:31:33;;;;;;;5.53;5.03;;;9.70;99.90;;;;;;955094;145;27407;-74
2022/01/02 08:34:00;;;;;;;5.30;4.83;;;9.80;99.90;;;;;;963405;146;27383;-73
2022/01/02 08:36:26;;;;;;;5.03;4.37;;;9.80;99.80;;;;;;956669;147;27408;-76
2022/01/02 08:38:53;;;;;;;5.67;4.53;;;9.90;99.90;;;;;;952546;148;27349;-76
2022/01/02 08:41:19;;;;;;;4.87;4.07;;;9.90;99.90;;;;;;952331;148;27348;-76
2022/01/02 08:43:46;;;;;;;5.53;4.30;;;10.00;99.90;;;;;;949751;148;27426;-77
2022/01/02 08:46:15;;;;;;;5.00;4.50;;;10.00;99.90;;;;;;955800;148;27390;-73
2022/01/02 08:48:42;;;;;;;5.13;4.67;;;10.00;99.80;;;;;;945637;146;27358;-72
2022/01/02 08:51:11;;;;;;;4.60;4.20;;;10.00;99.80;;;;;;934182;152;27326;-71
2022/01/02 08:53:37;;;;;;;6.83;4.20;;;10.10;99.70;;;;;;942212;148;27325;-70
2022/01/02 08:56:02;;;;;;;4.87;4.37;;;10.10;99.60;;;;;;946684;148;27272;-71
2022/01/02 08:58:28;;;;;;;5.40;4.90;;;10.10;99.50;;;;;;954028;148;27353;-73
2022/01/02 09:00:56;;;;;;;4.77;4.27;;;10.20;99.50;;;;;;937265;148;27423;-71
2022/01/02 09:03:21;;;;;;;4.83;4.33;;;10.20;99.60;;;;;;943247;148;27283;-71
2022/01/02 09:05:48;;;;;;;6.83;4.87;;;10.20;99.80;;;;;;950060;148;27263;-71
2022/01/02 09:08:15;;;;;;;6.30;4.43;;;10.30;99.90;;;;;;941306;150;27345;-72
2022/01/02 09:10:41;;;;;;;7.60;4.70;;;10.30;99.90;;;;;;937976;150;27394;-71
2022/01/02 09:13:08;;;;;;;4.40;3.70;;;10.40;99.90;;;;;;944342;148;27353;-71
2022/01/02 09:15:34;;;;;;;5.50;4.90;;;10.40;99.90;;;;;;942045;151;27329;-71
2022/01/02 09:18:01;;;;;;;6.00;4.30;;;10.40;99.90;;;;;;937086;148;27408;-71
2022/01/02 09:20:27;;;;;;;5.27;4.23;;;10.50;99.90;;;;;;943979;148;27376;-71
2022/01/02 09:22:55;;;;;;;4.83;4.30;;;10.60;99.90;;;;;;944304;147;27717;-71
2022/01/02 09:25:21;;;;;;;5.20;4.70;;;10.60;99.90;;;;;;940047;151;27469;-71
2022/01/02 09:27:47;;;;;;;5.50;4.57;;;10.70;99.90;;;;;;946046;148;27369;-74
2022/01/02 09:30:14;;;;;;;5.13;4.63;;;10.80;99.90;;;;;;944556;148;27424;-73
2022/01/02 09:32:41;;;;;;;6.00;5.40;;;10.90;99.90;;;;;;950572;147;27351;-74
2022/01/02 09:35:07;;;;;;;6.27;5.27;;;10.90;99.90;;;;;;935953;148;27426;-73
2022/01/02 09:37:36;;;;;;;6.27;5.30;;;11.00;99.90;;;;;;948221;148;27404;-74
2022/01/02 09:40:06;;;;;;;7.30;5.10;;;11.10;99.90;;;;;;941238;148;27427;-74
2022/01/02 09:42:33;;;;;;;6.37;5.17;;;11.20;99.90;;;;;;955357;148;27323;-73
2022/01/02 09:44:59;;;;;;;5.17;4.67;;;11.30;99.90;;;;;;945643;147;27444;-74
2022/01/02 09:47:26;;;;;;;5.37;4.47;;;11.40;99.90;;;;;;946497;148;27412;-74
2022/01/02 09:49:52;;;;;;;5.43;4.93;;;11.40;99.90;;;;;;947000;147;27414;-73
2022/01/02 09:52:19;;;;;;;4.50;4.10;;;11.50;99.90;;;;;;937136;148;27468;-74
2022/01/02 09:54:45;;;;;;;9.73;5.73;;;11.60;99.90;;;;;;940245;148;27374;-74
2022/01/02 09:57:16;;;;;;;5.10;3.97;;;11.70;99.90;;;;;;941582;151;27284;-74
2022/01/02 09:59:42;;;;;;;7.70;4.33;;;11.80;99.90;;;;;;940013;151;27339;-74
2022/01/02 10:02:08;;;;;;;7.03;4.40;;;11.90;99.70;;;;;;938144;150;27465;-73
2022/01/02 10:04:35;;;;;;;5.20;4.00;;;11.90;99.40;;;;;;947211;150;27441;-74
2022/01/02 10:07:04;;;;;;;5.00;4.40;;;12.00;99.30;;;;;;944213;148;27433;-74
2022/01/02 10:09:31;;;;;;;4.60;4.20;;;12.00;99.20;;;;;;944141;148;27368;-73
2022/01/02 10:12:22;;;;;;;5.50;5.00;;;12.10;99.10;;;;;;943627;150;27394;-74
2022/01/02 10:15:07;;;;;;;5.40;4.90;;;12.10;99.00;;;;;;947347;150;27410;-74
2022/01/02 10:17:55;;;;;;;4.07;3.70;;;12.20;98.80;;;;;;942758;148;27439;-74
2022/01/02 10:20:25;;;;;;;5.53;4.23;;;12.20;98.70;;;;;;938523;148;27336;-73
2022/01/02 10:23:03;;;;;;;3.87;3.50;;;12.20;98.60;;;;;;934884;148;27455;-73
2022/01/02 10:25:38;;;;;;;4.00;3.60;;;12.20;98.50;;;;;;944703;151;27381;-74
2022/01/02 10:28:17;;;;;;;4.17;3.77;;;12.20;98.50;;;;;;938910;148;27357;-74
2022/01/02 10:30:46;;;;;;;4.80;4.27;;;12.20;98.60;;;;;;943543;148;27369;-74
2022/01/02 10:33:13;;;;;;;5.60;5.00;;;12.20;99.00;;;;;;952072;148;27825;-74
2022/01/02 10:35:42;;;;;;;5.17;4.67;;;12.20;99.10;;;;;;944751;148;27354;-73
2022/01/02 10:38:15;;;;;;;5.63;4.93;;;12.20;99.10;;;;;;954040;148;27324;-73
2022/01/02 10:40:42;;;;;;;5.03;4.60;;;12.30;99.00;;;;;;938107;149;27293;-74
2022/01/02 10:43:10;;;;;;;5.60;5.00;;;12.30;98.80;;;;;;944903;146;27930;-73
2022/01/02 10:45:40;;;;;;;4.73;4.27;;;12.30;98.70;;;;;;945236;149;27331;-74
2022/01/02 10:48:06;;;;;;;5.27;4.43;;;12.40;98.50;;;;;;921887;150;27396;-72
2022/01/02 10:50:33;;;;;;;5.30;4.80;;;12.40;98.40;;;;;;947338;149;27419;-72
2022/01/02 10:53:15;;;;;;;5.53;4.57;;;12.40;98.20;;;;;;933902;149;27319;-71
2022/01/02 10:55:42;;;;;;;5.03;4.53;;;12.40;98.10;;;;;;943083;149;27340;-72
2022/01/02 10:58:08;;;;;;;5.27;4.77;;;12.50;97.70;;;;;;956021;149;27393;-71
2022/01/02 11:00:35;;;;;;;4.83;4.43;;;12.40;97.40;;;;;;939594;149;27365;-71
2022/01/02 11:03:01;;;;;;;5.17;4.40;;;12.40;97.30;;;;;;938754;152;27432;-70
2022/01/02 11:05:28;;;;;;;4.93;4.43;;;12.40;97.20;;;;;;954351;147;27317;-71
2022/01/02 11:07:54;;;;;;;5.30;4.73;;;12.40;97.20;;;;;;942559;149;27344;-71
2022/01/02 11:10:21;;;;;;;6.27;5.67;;;12.30;97.30;;;;;;932484;149;27402;-71
2022/01/02 11:12:48;;;;;;;5.77;5.10;;;12.30;97.40;;;;;;923876;154;27275;-72
2022/01/02 11:15:15;;;;;;;5.13;4.63;;;12.30;97.60;;;;;;938037;149;27360;-73
2022/01/02 11:17:44;;;;;;;5.03;4.00;;;12.30;97.80;;;;;;944806;149;27433;-72
2022/01/02 11:20:10;;;;;;;4.67;4.17;;;12.30;98.20;;;;;;924042;150;27440;-73
2022/01/02 11:23:07;;;;;;;4.60;4.20;;;12.30;98.40;;;;;;946297;148;27385;-72
2022/01/02 11:26:04;;;;;;;4.90;4.43;;;12.30;98.50;;;;;;949769;150;27236;-72
2022/01/02 11:28:39;;;;;;;4.73;4.17;;;12.30;98.50;;;;;;953954;147;27305;-72
2022/01/02 11:31:06;;;;;;;4.13;3.77;;;12.40;98.40;;;;;;926003;149;27334;-72
2022/01/02 11:33:39;;;;;;;4.87;4.37;;;12.40;98.20;;;;;;940955;147;27847;-73
2022/01/02 11:36:29;;;;;;;4.87;4.33;;;12.40;98.20;;;;;;926098;150;27363;-72
2022/01/02 11:39:05;;;;;;;4.57;4.17;;;12.40;98.30;;;;;;942903;147;27405;-72
2022/01/02 11:41:40;;;;;;;4.30;3.90;;;12.50;98.40;;;;;;929147;149;27421;-72
2022/01/02 11:44:08;;;;;;;4.97;4.47;;;12.50;98.60;;;;;;951977;148;27434;-72
2022/01/02 11:46:51;;;;;;;4.30;3.90;;;12.60;98.30;;;;;;941897;148;27274;-72
2022/01/02 11:49:20;;;;;;;5.97;5.37;;;12.60;98.60;;;;;;932013;149;27291;-72
2022/01/02 11:51:49;;;;;;;5.40;4.83;;;12.60;98.50;;;;;;945477;151;27382;-72
2022/01/02 11:54:40;;;;;;;5.17;4.67;;;12.70;98.60;;;;;;936124;149;27324;-72
2022/01/02 11:57:03;;;;;;;6.97;6.27;;;12.70;98.70;;;;;;933389;150;27417;-72
2022/01/02 11:59:39;;;;;;;7.10;6.07;;;12.80;98.50;;;;;;932959;149;27336;-72
2022/01/02 12:02:14;;;;;;;5.67;5.13;;;12.80;98.40;;;;;;946252;149;27438;-72
2022/01/02 12:04:59;;;;;;;5.87;4.60;;;12.80;98.20;;;;;;938500;148;27336;-72
2022/01/02 12:07:34;;;;;;;5.10;4.60;;;12.80;98.10;;;;;;927678;149;27441;-72
2022/01/02 12:10:16;;;;;;;6.30;5.53;;;12.80;98.00;;;;;;927241;149;27469;-71
2022/01/02 12:13:05;;;;;;;6.40;5.80;;;12.90;98.00;;;;;;942469;149;27317;-73
2022/01/02 12:15:33;;;;;;;6.57;5.87;;;12.90;97.90;;;;;;936965;149;27887;-73
2022/01/02 12:18:12;;;;;;;8.73;6.53;;;12.80;97.90;;;;;;940332;149;27420;-73
2022/01/02 12:20:51;;;;;;;9.37;6.67;;;12.80;97.80;;;;;;932514;149;27805;-73
2022/01/02 12:23:35;;;;;;;7.87;6.30;;;12.80;97.80;;;;;;940852;149;27334;-72
2022/01/02 12:25:59;;;;;;;8.03;5.97;;;12.80;97.90;;;;;;938459;146;27417;-73
2022/01/02 12:28:25;;;;;;;6.50;5.63;;;12.80;98.00;;;;;;937722;149;27476;-72
2022/01/02 12:30:52;;;;;;;5.47;4.97;;;12.80;98.10;;;;;;932037;149;27415;-72
2022/01/02 12:33:27;;;;;;;5.30;4.80;;;12.80;98.10;;;;;;921734;152;27326;-72
2022/01/02 12:35:54;;;;;;;5.47;4.73;;;12.90;98.00;;;;;;941007;147;27394;-73
2022/01/02 12:38:21;;;;;;;4.87;4.40;;;12.90;97.90;;;;;;933270;149;27338;-72
2022/01/02 12:40:49;;;;;;;5.10;4.43;;;12.90;97.80;;;;;;945930;150;27299;-72
2022/01/02 12:43:14;;;;;;;6.23;5.23;;;12.90;97.70;;;;;;928200;150;27335;-72
2022/01/02 12:45:43;;;;;;;5.17;4.67;;;12.90;97.60;;;;;;938499;149;27362;-72
2022/01/02 12:48:11;;;;;;;5.50;4.87;;;12.90;97.50;;;;;;957079;147;27330;-73
2022/01/02 12:50:38;;;;;;;4.93;4.43;;;12.90;97.50;;;;;;936828;149;27362;-72
2022/01/02 12:53:04;;;;;;;4.80;4.40;;;12.90;97.50;;;;;;943008;147;27435;-73
2022/01/02 12:55:29;;;;;;;4.67;4.27;;;12.90;97.50;;;;;;941515;149;27397;-73
2022/01/02 12:58:05;;;;;;;3.77;3.47;;;12.90;97.50;;;;;;934495;149;27393;-72
2022/01/02 13:00:31;;;;;;;4.00;3.60;;;13.00;97.40;;;;;;941187;151;27410;-72
2022/01/02 13:02:58;;;;;;;4.90;3.23;;;13.00;97.40;;;;;;935737;152;27326;-73
2022/01/02 13:05:25;;;;;;;4.00;3.60;;;13.00;97.40;;;;;;937746;149;27439;-72